Lincoln Park, NJ

08:29 PM EDT on Outubro 20, 2014 (GMT -0400)
Pompton Plains | Change Station
CLOSE
Current Station
Personal Weather Stations
Location: Pompton Plains, NJ
Elevation: 60 m
Nearby Weather Stations

Elev 60 m 40.96 °N, 74.31 °W | Updated 4 seconds ago

Despexado
Despexado
7.2 °C
Feels Like 7 °C
N
0.0
Vento Variable Vento from Norte

Hoxe
High -- | Low -- °C
--% Chance of Precip.
Yesterday
High -- | Low -- °C
Precip. -- mm
7:14 AM 6:09 PM
Waning Crescent, 8% visible
Presión 1016 hPa
Visibilidade 16.1 Quilómetros
Nubes Despexado
Vento Xeado 7 °C
Nivel de Rosada 4 °C
Humidade 81%
Rainfall 0 mm
Fondo da neve Not available.
UV 0 out of 12
Pollen 1.10 out of 12
Air Quality Not available.
Flu Activity Sporadic
METAR KCDW 202353Z 00000KT 10SM CLR 12/03 A2998 RMK AO2 SLP158 T01170033 10156 20117 53002

More Conditions Fewer Conditions

Presión 1016 hPa
Visibilidade 16.1 Quilómetros
Nubes Despexado
Vento Xeado 7 °C
Nivel de Rosada 4 °C
Humidade 81%
Rainfall 0 mm
Fondo da neve Not available.
UV 0 out of 12
Pollen 1.10 out of 12
Air Quality Not available.
Flu Activity Sporadic
METAR KCDW 202353Z 00000KT 10SM CLR 12/03 A2998 RMK AO2 SLP158 T01170033 10156 20117 53002

More Conditions Fewer Conditions

10-Day Weather Forecast

Almanac

Astronomía

Oct. 20, 2014 Rise Set
Tempo actual 7:14 AM EDT 6:09 PM EDT
Crepúsculo civil 6:46 AM EDT 6:37 PM EDT
Crepúsculo náutico 6:14 AM EDT 7:09 PM EDT
Crepúsculo astronómico 5:42 AM EDT 7:40 PM EDT
Lúa 3:58 AM EDT (10/20) 4:31 PM EDT (10/20)
Lonxitude da luz visíbel 11h 50m
Length of Day
10h 55m
Tomorrow will be 2m 35s shorter.
Waning Crescent, 8% of the Moon is Illuminated
Hoxe
Waning Crescent
Oct 23
New
Oct 30
Cuarto crescente
Nov 6
Lúa chea
Nov 14
Cuarto menguante

Today's Extremes

State Highs State Lows

Community

WunderPhotos

Upload Photos

1,763,552 photos uploaded!

Nearby

Air Quality

  Air Quality AQ Index Pollutant
Yesterday Good
OZONE
Yesterday Good
PM2.5
Luns Good
PM2.5

Snow Depth

Station Depth Elevation
No new snow has been reported.

Earthquake Activity

Cidade Distance Mag. Time & Date
No recent earthquake activity has been reported nearby.
Minimum magnitude displayed is 2.5.

Coastal Water Temperatures

Lugar Temperatura
Sandy Hook, NJ 16.1 °C
The Battery, NY 17.2 °C
Kings Point, NY 15.6 °C

Nearby Weather Stations